createdAt,value
2018-05-16T00:01:08.478Z,101103.38
2018-05-16T00:03:37.311Z,101102.50
2018-05-16T00:06:06.147Z,101102.87
2018-05-16T00:08:34.997Z,101098.95
2018-05-16T00:11:03.818Z,101092.11
2018-05-16T00:13:32.649Z,101094.18
2018-05-16T00:16:01.484Z,101089.88
2018-05-16T00:18:30.285Z,101096.38
2018-05-16T00:20:59.138Z,101108.89
2018-05-16T00:23:27.954Z,101111.63
2018-05-16T00:25:56.755Z,101109.41
2018-05-16T00:28:25.586Z,101110.58
2018-05-16T00:30:54.386Z,101117.92
2018-05-16T00:33:23.241Z,101112.97
2018-05-16T00:35:52.064Z,101109.21
2018-05-16T00:38:20.938Z,101116.70
2018-05-16T00:40:49.699Z,101112.76
2018-05-16T00:43:18.540Z,101115.64
2018-05-16T00:45:47.379Z,101105.39
2018-05-16T00:48:16.214Z,101105.94
2018-05-16T00:51:23.881Z,101102.27
2018-05-16T00:53:52.695Z,101102.50
2018-05-16T00:56:21.512Z,101101.64
2018-05-16T00:58:50.359Z,101096.81
2018-05-16T01:01:19.176Z,101104.97
2018-05-16T01:03:48.008Z,101105.07
2018-05-16T01:06:16.843Z,101103.01
2018-05-16T01:08:45.641Z,101093.11
2018-05-16T01:11:14.460Z,101091.86
2018-05-16T01:13:43.279Z,101092.34
2018-05-16T01:16:12.092Z,101088.09
2018-05-16T01:18:40.928Z,101092.02
2018-05-16T01:21:09.760Z,101097.55
2018-05-16T01:23:38.562Z,101091.58
2018-05-16T01:26:07.376Z,101091.77
2018-05-16T01:28:36.211Z,101093.67
2018-05-16T01:31:05.029Z,101098.16
2018-05-16T01:33:33.890Z,101092.30
2018-05-16T01:36:02.708Z,101094.84
2018-05-16T01:38:31.533Z,101096.56
2018-05-16T01:41:00.326Z,101092.62
2018-05-16T01:43:29.154Z,101096.18
2018-05-16T01:45:57.953Z,101090.98
2018-05-16T01:48:26.790Z,101093.33
2018-05-16T01:50:55.609Z,101086.31
2018-05-16T01:53:24.408Z,101090.02
2018-05-16T01:55:53.243Z,101096.09
2018-05-16T01:58:22.046Z,101092.20
2018-05-16T02:00:50.873Z,101096.14
2018-05-16T02:03:19.693Z,101091.67
2018-05-16T02:05:48.540Z,101092.81
2018-05-16T02:08:17.356Z,101094.53
2018-05-16T02:10:46.174Z,101103.27
2018-05-16T02:13:15.010Z,101090.47
2018-05-16T02:15:43.807Z,101089.96
2018-05-16T02:18:12.610Z,101091.86
2018-05-16T02:20:41.558Z,101094.25
2018-05-16T02:23:10.395Z,101090.87
2018-05-16T02:25:39.209Z,101087.29
2018-05-16T02:28:08.025Z,101094.81
2018-05-16T02:30:36.835Z,101095.48
2018-05-16T02:33:05.673Z,101091.58
2018-05-16T02:35:34.490Z,101096.56
2018-05-16T02:38:03.303Z,101101.00
2018-05-16T02:40:32.152Z,101102.36
2018-05-16T02:43:00.972Z,101091.81
2018-05-16T02:45:29.816Z,101083.27
2018-05-16T02:47:58.641Z,101078.16
2018-05-16T02:50:27.477Z,101076.46
2018-05-16T02:52:56.295Z,101073.73
2018-05-16T02:55:25.125Z,101074.41
2018-05-16T02:57:53.952Z,101076.95
2018-05-16T03:00:22.794Z,101077.98
2018-05-16T03:02:51.608Z,101070.30
2018-05-16T03:05:20.431Z,101078.80
2018-05-16T03:07:49.282Z,101078.83
2018-05-16T03:10:18.104Z,101086.00
2018-05-16T03:12:46.934Z,101075.09
2018-05-16T03:15:15.728Z,101077.16
2018-05-16T03:17:44.561Z,101074.77
2018-05-16T03:20:13.388Z,101070.12
2018-05-16T03:22:42.197Z,101071.32
2018-05-16T03:25:11.056Z,101075.61
2018-05-16T03:27:39.878Z,101079.12
2018-05-16T03:30:08.694Z,101079.64
2018-05-16T03:32:37.549Z,101079.64
2018-05-16T03:35:06.347Z,101079.50
2018-05-16T03:37:35.201Z,101082.60
2018-05-16T03:40:04.037Z,101080.56
2018-05-16T03:42:32.875Z,101073.25
2018-05-16T03:45:01.704Z,101077.15
2018-05-16T03:47:30.551Z,101069.84
2018-05-16T03:49:59.361Z,101077.23
2018-05-16T03:52:28.185Z,101076.02
2018-05-16T03:54:57.005Z,101082.50
2018-05-16T03:58:03.493Z,101077.73
2018-05-16T04:01:23.232Z,101083.56
2018-05-16T04:04:17.496Z,101089.36
2018-05-16T04:06:46.312Z,101095.36
2018-05-16T04:09:15.151Z,101089.70
2018-05-16T04:11:43.964Z,101096.21
2018-05-16T04:14:12.796Z,101095.52
2018-05-16T04:16:41.616Z,101100.33
2018-05-16T04:19:10.428Z,101104.44
2018-05-16T04:21:39.243Z,101111.62
2018-05-16T04:24:08.085Z,101109.23
2018-05-16T04:26:36.903Z,101105.44
2018-05-16T04:29:05.725Z,101107.70
2018-05-16T04:31:34.562Z,101106.50
2018-05-16T04:34:03.380Z,101108.22
2018-05-16T04:36:32.230Z,101119.17
2018-05-16T04:39:01.038Z,101109.92
2018-05-16T04:41:29.862Z,101109.91
2018-05-16T04:43:58.689Z,101115.37
2018-05-16T04:46:27.477Z,101110.56
2018-05-16T04:48:56.284Z,101112.45
2018-05-16T04:51:27.936Z,101122.52
2018-05-16T04:53:56.733Z,101120.98
2018-05-16T04:56:25.543Z,101122.67
2018-05-16T04:58:54.388Z,101130.86
2018-05-16T05:01:23.215Z,101129.15
2018-05-16T05:03:52.021Z,101131.34
2018-05-16T05:06:20.866Z,101131.48
2018-05-16T05:08:49.749Z,101135.11
2018-05-16T05:11:18.519Z,101138.70
2018-05-16T05:13:47.378Z,101147.40
2018-05-16T05:16:16.236Z,101148.39
2018-05-16T05:18:45.099Z,101149.20
2018-05-16T05:21:13.905Z,101146.41
2018-05-16T05:23:42.735Z,101149.62
2018-05-16T05:26:11.564Z,101145.50
2018-05-16T05:28:40.384Z,101150.98
2018-05-16T05:31:09.213Z,101152.82
2018-05-16T05:33:38.060Z,101153.45
2018-05-16T05:36:06.894Z,101160.00
2018-05-16T05:38:35.729Z,101157.89
2018-05-16T05:41:04.547Z,101164.64
2018-05-16T05:43:33.397Z,101168.81
2018-05-16T05:46:02.216Z,101165.88
2018-05-16T05:48:31.154Z,101167.20
2018-05-16T05:50:59.905Z,101175.84
2018-05-16T05:53:28.744Z,101172.00
2018-05-16T05:55:57.593Z,101170.02
2018-05-16T05:58:26.438Z,101171.66
2018-05-16T06:00:55.298Z,101171.41
2018-05-16T06:03:24.117Z,101179.77
2018-05-16T06:05:52.991Z,101187.96
2018-05-16T06:08:21.934Z,101180.72
2018-05-16T06:10:50.907Z,101180.66
2018-05-16T06:13:19.709Z,101183.72
2018-05-16T06:15:48.534Z,101195.94
2018-05-16T06:18:17.365Z,101194.89
2018-05-16T06:20:46.260Z,101194.45
2018-05-16T06:23:15.050Z,101207.04
2018-05-16T06:25:43.866Z,101199.37
2018-05-16T06:28:12.771Z,101209.17
2018-05-16T06:30:41.758Z,101209.81
2018-05-16T06:33:10.613Z,101199.92
2018-05-16T06:35:39.484Z,101206.22
2018-05-16T06:38:08.361Z,101203.31
2018-05-16T06:40:37.398Z,101213.07
2018-05-16T06:43:06.378Z,101214.34
2018-05-16T06:45:35.179Z,101215.58
2018-05-16T06:48:04.018Z,101218.59
2018-05-16T06:50:32.845Z,101233.41
2018-05-16T06:53:01.805Z,101237.56
2018-05-16T06:55:30.559Z,101244.59
2018-05-16T06:58:00.235Z,101247.75
2018-05-16T07:00:29.031Z,101253.64
2018-05-16T07:02:57.893Z,101251.23
2018-05-16T07:05:26.706Z,101256.39
2018-05-16T07:07:55.572Z,101257.36
2018-05-16T07:10:24.822Z,101256.00
2018-05-16T07:12:54.785Z,101257.22
2018-05-16T07:15:23.940Z,101262.76
2018-05-16T07:17:52.988Z,101275.83
2018-05-16T07:20:22.122Z,101274.98
2018-05-16T07:22:51.527Z,101276.52
2018-05-16T07:25:20.487Z,101275.32
2018-05-16T07:27:49.578Z,101275.32
2018-05-16T07:30:18.523Z,101281.84
2018-05-16T07:32:47.801Z,101280.87
2018-05-16T07:35:19.939Z,101280.20
2018-05-16T07:37:49.254Z,101282.80
2018-05-16T07:40:19.172Z,101288.31
2018-05-16T07:42:48.453Z,101291.22
2018-05-16T07:45:17.630Z,101285.42
2018-05-16T07:47:46.768Z,101291.24
2018-05-16T07:50:16.112Z,101300.81
2018-05-16T07:52:45.001Z,101300.81
2018-05-16T07:55:14.368Z,101302.38
2018-05-16T07:57:43.367Z,101293.98
2018-05-16T08:00:12.420Z,101297.58
2018-05-16T08:02:41.437Z,101301.54
2018-05-16T08:05:10.870Z,101304.08
2018-05-16T08:07:39.912Z,101309.91
2018-05-16T08:10:08.749Z,101309.59
2018-05-16T08:12:38.162Z,101317.46
2018-05-16T08:15:07.414Z,101313.88
2018-05-16T08:17:36.756Z,101319.36
2018-05-16T08:20:05.855Z,101319.36
2018-05-16T08:22:35.004Z,101313.88
2018-05-16T08:25:04.174Z,101320.89
2018-05-16T08:27:33.442Z,101319.66
2018-05-16T08:30:03.035Z,101327.19
2018-05-16T08:32:32.563Z,101320.17
2018-05-16T08:35:01.716Z,101323.75
2018-05-16T08:37:30.842Z,101324.23
2018-05-16T08:40:00.028Z,101327.16
2018-05-16T08:42:29.028Z,101325.75
2018-05-16T08:44:58.045Z,101326.44
2018-05-16T08:47:27.145Z,101333.80
2018-05-16T08:49:56.294Z,101332.98
2018-05-16T08:52:25.313Z,101342.03
2018-05-16T08:54:54.481Z,101341.20
2018-05-16T08:57:23.716Z,101352.31
2018-05-16T08:59:53.041Z,101354.55
2018-05-16T09:02:22.227Z,101355.37
2018-05-16T09:04:51.248Z,101350.23
2018-05-16T09:07:20.302Z,101348.69
2018-05-16T09:09:49.807Z,101343.20
2018-05-16T09:12:18.869Z,101351.98
2018-05-16T09:14:48.152Z,101350.06
2018-05-16T09:17:17.504Z,101355.69
2018-05-16T09:19:46.410Z,101350.06
2018-05-16T09:22:17.020Z,101354.69
2018-05-16T09:24:45.964Z,101351.77
2018-05-16T09:27:15.355Z,101346.63
2018-05-16T09:29:44.492Z,101338.20
2018-05-16T09:32:13.577Z,101338.37
2018-05-16T09:34:42.555Z,101342.96
2018-05-16T09:37:11.947Z,101349.13
2018-05-16T09:39:41.219Z,101350.16
2018-05-16T09:42:11.068Z,101345.82
2018-05-16T09:44:40.416Z,101346.46
2018-05-16T09:47:09.665Z,101351.27
2018-05-16T09:49:39.060Z,101360.13
2018-05-16T09:52:08.389Z,101354.63
2018-05-16T09:54:37.595Z,101353.22
2018-05-16T09:57:07.749Z,101356.98
2018-05-16T09:59:36.744Z,101367.78
2018-05-16T10:02:05.869Z,101360.13
2018-05-16T10:04:34.977Z,101358.52
2018-05-16T10:07:04.230Z,101350.72
2018-05-16T10:09:33.192Z,101353.45
2018-05-16T10:12:02.347Z,101349.31
2018-05-16T10:14:31.719Z,101348.59
2018-05-16T10:17:01.619Z,101349.82
2018-05-16T10:19:30.849Z,101350.23
2018-05-16T10:22:00.744Z,101344.63
2018-05-16T10:24:30.050Z,101346.09
2018-05-16T10:26:59.040Z,101343.44
2018-05-16T10:29:28.585Z,101340.56
2018-05-16T10:31:57.877Z,101346.00
2018-05-16T10:34:27.159Z,101346.25
2018-05-16T10:36:56.175Z,101339.06
2018-05-16T10:39:25.378Z,101344.44
2018-05-16T10:41:54.933Z,101347.12
2018-05-16T10:44:24.163Z,101346.59
2018-05-16T10:46:53.511Z,101342.13
2018-05-16T10:49:22.655Z,101332.70
2018-05-16T10:51:51.653Z,101339.58
2018-05-16T10:54:21.469Z,101328.84
2018-05-16T10:56:50.642Z,101323.66
2018-05-16T10:59:19.774Z,101328.45
2018-05-16T11:01:49.665Z,101321.73
2018-05-16T11:04:54.524Z,101328.48
2018-05-16T11:07:23.846Z,101317.47
2018-05-16T11:09:53.343Z,101319.62
2018-05-16T11:12:22.332Z,101315.48
2018-05-16T11:14:51.354Z,101318.36
2018-05-16T11:17:20.643Z,101317.16
2018-05-16T11:19:49.787Z,101319.79
2018-05-16T11:22:18.851Z,101316.53
2018-05-16T11:24:47.928Z,101316.70
2018-05-16T11:27:16.881Z,101320.17
2018-05-16T11:29:46.119Z,101313.22
2018-05-16T11:32:17.752Z,101315.02
2018-05-16T11:34:46.831Z,101308.55
2018-05-16T11:37:16.009Z,101305.69
2018-05-16T11:39:45.111Z,101296.23
2018-05-16T11:42:14.221Z,101298.09
2018-05-16T11:44:43.275Z,101300.25
2018-05-16T11:47:12.384Z,101292.17
2018-05-16T11:49:41.595Z,101293.20
2018-05-16T11:52:10.798Z,101293.27
2018-05-16T11:54:40.100Z,101290.48
2018-05-16T11:57:09.134Z,101288.14
2018-05-16T11:59:38.146Z,101291.83
2018-05-16T12:02:07.319Z,101293.84
2018-05-16T12:04:36.375Z,101287.59
2018-05-16T12:07:05.259Z,101295.23
2018-05-16T12:09:35.461Z,101292.94
2018-05-16T12:12:06.599Z,101289.64
2018-05-16T12:14:37.057Z,101293.71
2018-05-16T12:17:07.715Z,101287.41
2018-05-16T12:19:36.822Z,101292.77
2018-05-16T12:22:05.822Z,101295.66
2018-05-16T12:24:35.388Z,101291.44
2018-05-16T12:27:04.343Z,101299.80
2018-05-16T12:29:33.685Z,101288.31
2018-05-16T12:32:03.270Z,101288.97
2018-05-16T12:34:32.587Z,101286.56
2018-05-16T12:37:01.482Z,101287.47
2018-05-16T12:39:30.897Z,101280.25
2018-05-16T12:41:59.939Z,101288.33
2018-05-16T12:44:28.949Z,101279.83
2018-05-16T12:46:58.166Z,101284.73
2018-05-16T12:49:30.236Z,101283.06
2018-05-16T12:51:59.154Z,101276.69
2018-05-16T12:54:28.284Z,101278.43
2018-05-16T12:56:57.401Z,101279.47
2018-05-16T12:59:26.468Z,101284.52
2018-05-16T13:01:55.298Z,101289.80
2018-05-16T13:04:24.756Z,101286.12
2018-05-16T13:06:54.040Z,101281.36
2018-05-16T13:09:22.989Z,101284.36
2018-05-16T13:11:52.703Z,101286.39
2018-05-16T13:14:21.795Z,101290.31
2018-05-16T13:16:51.031Z,101296.58
2018-05-16T13:19:21.050Z,101290.09
2018-05-16T13:21:50.030Z,101291.84
2018-05-16T13:24:18.996Z,101294.53
2018-05-16T13:26:48.218Z,101299.05
2018-05-16T13:29:18.016Z,101305.08
2018-05-16T13:31:47.184Z,101298.20
2018-05-16T13:34:16.337Z,101295.04
2018-05-16T13:36:45.364Z,101298.48
2018-05-16T13:39:14.337Z,101302.63
2018-05-16T13:41:43.608Z,101299.64
2018-05-16T13:44:12.470Z,101296.77
2018-05-16T13:46:41.857Z,101300.33
2018-05-16T13:49:13.479Z,101296.88
2018-05-16T13:51:42.521Z,101298.91
2018-05-16T13:54:11.330Z,101295.15
2018-05-16T13:56:40.222Z,101290.34
2018-05-16T13:59:09.019Z,101296.64
2018-05-16T14:01:37.859Z,101303.17
2018-05-16T14:04:06.728Z,101291.32
2018-05-16T14:06:35.713Z,101294.19
2018-05-16T14:09:05.562Z,101289.64
2018-05-16T14:11:34.420Z,101281.72
2018-05-16T14:14:03.434Z,101281.45
2018-05-16T14:16:32.510Z,101284.95
2018-05-16T14:19:01.458Z,101290.12
2018-05-16T14:21:30.272Z,101294.68
2018-05-16T14:23:59.128Z,101294.83
2018-05-16T14:26:27.960Z,101304.50
2018-05-16T14:28:56.819Z,101308.84
2018-05-16T14:31:25.667Z,101314.20
2018-05-16T14:33:54.501Z,101311.45
2018-05-16T14:36:23.332Z,101311.89
2018-05-16T14:38:52.152Z,101308.05
2018-05-16T14:41:20.970Z,101301.37
2018-05-16T14:43:49.858Z,101299.82
2018-05-16T14:46:18.706Z,101300.14
2018-05-16T14:48:47.538Z,101299.97
2018-05-16T14:51:16.392Z,101299.67
2018-05-16T14:53:45.223Z,101300.64
2018-05-16T14:56:14.076Z,101313.77
2018-05-16T14:58:42.902Z,101320.61
2018-05-16T15:01:11.747Z,101321.76
2018-05-16T15:03:40.594Z,101324.33
2018-05-16T15:06:09.444Z,101326.67
2018-05-16T15:08:38.282Z,101323.28
2018-05-16T15:11:07.293Z,101320.19
2018-05-16T15:13:36.242Z,101326.75
2018-05-16T15:16:05.325Z,101322.07
2018-05-16T15:18:34.142Z,101329.93
2018-05-16T15:21:02.959Z,101320.98
2018-05-16T15:23:31.888Z,101318.10
2018-05-16T15:26:00.712Z,101316.72
2018-05-16T15:28:29.563Z,101316.19
2018-05-16T15:30:58.389Z,101313.87
2018-05-16T15:33:27.230Z,101313.42
2018-05-16T15:35:56.045Z,101306.52
2018-05-16T15:38:24.970Z,101305.45
2018-05-16T15:40:53.701Z,101322.81
2018-05-16T15:43:22.558Z,101319.30
2018-05-16T15:45:51.382Z,101320.36
2018-05-16T15:48:20.197Z,101320.55
2018-05-16T15:50:49.040Z,101322.61
2018-05-16T15:53:17.851Z,101331.30
2018-05-16T15:55:46.682Z,101327.96
2018-05-16T15:58:15.503Z,101325.69
2018-05-16T16:00:44.384Z,101324.11
2018-05-16T16:03:13.156Z,101332.37
2018-05-16T16:05:41.975Z,101333.53
2018-05-16T16:08:10.912Z,101326.14
2018-05-16T16:10:39.640Z,101324.23
2018-05-16T16:13:08.562Z,101326.30
2018-05-16T16:15:37.400Z,101330.15
2018-05-16T16:18:06.306Z,101325.11
2018-05-16T16:20:35.123Z,101324.25
2018-05-16T16:23:03.992Z,101334.45
2018-05-16T16:25:32.808Z,101330.64
2018-05-16T16:28:01.625Z,101334.75
2018-05-16T16:30:30.448Z,101336.73
2018-05-16T16:32:59.286Z,101350.36
2018-05-16T16:35:28.107Z,101354.00
2018-05-16T16:37:56.915Z,101357.48
2018-05-16T16:40:25.757Z,101366.55
2018-05-16T16:42:54.556Z,101365.98
2018-05-16T16:45:23.407Z,101377.78
2018-05-16T16:47:52.216Z,101376.71
2018-05-16T16:50:21.034Z,101387.03
2018-05-16T16:52:49.836Z,101388.59
2018-05-16T16:55:18.655Z,101387.11
2018-05-16T16:57:47.452Z,101387.92
2018-05-16T17:00:16.286Z,101396.48
2018-05-16T17:02:45.108Z,101390.11
2018-05-16T17:05:13.899Z,101397.56
2018-05-16T17:07:42.740Z,101398.69
2018-05-16T17:10:11.570Z,101403.82
2018-05-16T17:12:40.461Z,101412.93
2018-05-16T17:15:09.405Z,101407.97
2018-05-16T17:17:38.246Z,101417.45
2018-05-16T17:20:07.382Z,101425.16
2018-05-16T17:22:36.229Z,101432.43
2018-05-16T17:25:05.038Z,101447.31
2018-05-16T17:27:33.887Z,101440.44
2018-05-16T17:30:02.701Z,101445.11
2018-05-16T17:32:31.522Z,101449.81
2018-05-16T17:35:00.345Z,101453.78
2018-05-16T17:37:29.179Z,101454.45
2018-05-16T17:39:57.996Z,101465.27
2018-05-16T17:42:26.822Z,101474.34
2018-05-16T17:44:55.654Z,101480.54
2018-05-16T17:47:24.457Z,101482.69
2018-05-16T17:49:53.288Z,101494.59
2018-05-16T17:52:22.325Z,101502.86
2018-05-16T17:54:51.155Z,101502.41
2018-05-16T17:57:19.987Z,101511.67
2018-05-16T17:59:48.849Z,101517.16
2018-05-16T18:02:17.678Z,101516.97
2018-05-16T18:04:46.481Z,101520.95
2018-05-16T18:07:15.347Z,101518.03
2018-05-16T18:09:44.161Z,101519.25
2018-05-16T18:12:13.232Z,101511.73
2018-05-16T18:15:25.873Z,101518.74
2018-05-16T18:17:54.734Z,101521.98
2018-05-16T18:20:23.534Z,101530.41
2018-05-16T18:22:52.372Z,101529.19
2018-05-16T18:25:21.304Z,101533.66
2018-05-16T18:27:50.131Z,101528.51
2018-05-16T18:30:18.961Z,101534.16
2018-05-16T18:32:47.825Z,101535.38
2018-05-16T18:35:16.663Z,101544.61
2018-05-16T18:37:45.511Z,101548.91
2018-05-16T18:40:14.331Z,101548.70
2018-05-16T18:42:43.234Z,101553.67
2018-05-16T18:45:12.010Z,101568.55
2018-05-16T18:47:40.858Z,101565.09
2018-05-16T18:50:09.651Z,101570.92
2018-05-16T18:52:38.487Z,101563.00
2018-05-16T18:55:07.324Z,101569.45
2018-05-16T18:57:36.146Z,101577.06
2018-05-16T19:00:05.030Z,101584.77
2018-05-16T19:02:33.872Z,101578.78
2018-05-16T19:05:02.711Z,101586.14
2018-05-16T19:07:31.524Z,101582.16
2018-05-16T19:10:00.389Z,101582.63
2018-05-16T19:12:29.319Z,101577.66
2018-05-16T19:14:58.322Z,101588.77
2018-05-16T19:17:27.213Z,101592.48
2018-05-16T19:19:56.120Z,101592.83
2018-05-16T19:22:24.892Z,101594.66
2018-05-16T19:24:53.711Z,101601.97
2018-05-16T19:27:22.536Z,101610.64
2018-05-16T19:29:51.327Z,101616.56
2018-05-16T19:32:20.165Z,101620.61
2018-05-16T19:34:48.985Z,101621.59
2018-05-16T19:37:17.799Z,101629.52
2018-05-16T19:39:46.604Z,101625.92
2018-05-16T19:42:15.424Z,101636.36
2018-05-16T19:44:44.219Z,101640.02
2018-05-16T19:47:13.044Z,101642.07
2018-05-16T19:49:41.830Z,101649.27
2018-05-16T19:52:10.682Z,101653.34
2018-05-16T19:54:39.522Z,101658.81
2018-05-16T19:57:08.400Z,101655.37
2018-05-16T19:59:37.197Z,101659.27
2018-05-16T20:02:05.996Z,101658.34
2018-05-16T20:04:34.850Z,101661.87
2018-05-16T20:07:03.676Z,101663.80
2018-05-16T20:09:32.542Z,101660.65
2018-05-16T20:12:01.477Z,101667.55
2018-05-16T20:14:30.389Z,101668.39
2018-05-16T20:16:59.105Z,101665.50
2018-05-16T20:19:27.927Z,101670.05
2018-05-16T20:21:56.772Z,101669.04
2018-05-16T20:24:25.586Z,101674.36
2018-05-16T20:26:54.423Z,101679.77
2018-05-16T20:29:23.285Z,101681.40
2018-05-16T20:31:52.054Z,101681.61
2018-05-16T20:34:20.873Z,101687.45
2018-05-16T20:36:49.713Z,101683.17
2018-05-16T20:39:18.517Z,101690.14
2018-05-16T20:41:47.318Z,101690.59
2018-05-16T20:44:16.184Z,101686.53
2018-05-16T20:46:44.988Z,101690.95
2018-05-16T20:49:13.865Z,101694.41
2018-05-16T20:51:42.672Z,101694.98
2018-05-16T20:54:11.524Z,101699.23
2018-05-16T20:56:40.373Z,101694.59
2018-05-16T20:59:09.219Z,101698.88
2018-05-16T21:01:38.059Z,101693.91
2018-05-16T21:04:06.884Z,101697.11
2018-05-16T21:06:35.743Z,101697.43
2018-05-16T21:09:05.820Z,101696.56
2018-05-16T21:11:34.646Z,101701.05
2018-05-16T21:14:03.500Z,101699.61
2018-05-16T21:16:32.331Z,101708.75
2018-05-16T21:19:01.304Z,101713.13
2018-05-16T21:21:30.104Z,101709.42
2018-05-16T21:23:58.904Z,101715.45
2018-05-16T21:26:27.830Z,101726.38
2018-05-16T21:28:56.649Z,101729.25
2018-05-16T21:31:25.492Z,101735.63
2018-05-16T21:33:54.316Z,101732.71
2018-05-16T21:36:23.125Z,101737.66
2018-05-16T21:38:51.971Z,101738.50
2018-05-16T21:41:20.774Z,101742.39
2018-05-16T21:43:49.590Z,101740.72
2018-05-16T21:46:18.392Z,101742.81
2018-05-16T21:48:47.224Z,101741.80
2018-05-16T21:51:16.027Z,101745.06
2018-05-16T21:53:44.832Z,101748.98
2018-05-16T21:56:13.631Z,101743.83
2018-05-16T21:58:42.455Z,101748.55
2018-05-16T22:01:11.258Z,101748.94
2018-05-16T22:03:40.070Z,101747.70
2018-05-16T22:06:08.891Z,101752.59
2018-05-16T22:08:37.701Z,101757.58
2018-05-16T22:11:06.561Z,101757.58
2018-05-16T22:13:35.508Z,101767.91
2018-05-16T22:16:04.291Z,101763.95
2018-05-16T22:18:33.095Z,101758.77
2018-05-16T22:21:01.914Z,101767.56
2018-05-16T22:23:30.752Z,101767.33
2018-05-16T22:25:59.575Z,101767.16
2018-05-16T22:28:28.377Z,101765.73
2018-05-16T22:31:15.074Z,101764.25
2018-05-16T22:34:01.862Z,101766.42
2018-05-16T22:36:48.467Z,101767.30
2018-05-16T22:39:34.972Z,101769.97
2018-05-16T22:42:21.372Z,101764.88
2018-05-16T22:44:50.208Z,101770.79
2018-05-16T22:47:19.017Z,101766.34
2018-05-16T22:49:47.826Z,101760.28
2018-05-16T22:52:16.642Z,101760.16
2018-05-16T22:54:45.459Z,101757.73
2018-05-16T22:57:14.359Z,101756.73
2018-05-16T22:59:43.190Z,101757.11
2018-05-16T23:02:12.037Z,101761.31
2018-05-16T23:04:40.860Z,101756.42
2018-05-16T23:07:09.678Z,101752.95
2018-05-16T23:09:38.565Z,101757.91
2018-05-16T23:12:07.464Z,101753.72
2018-05-16T23:14:36.286Z,101749.30
2018-05-16T23:17:05.140Z,101752.72
2018-05-16T23:19:33.946Z,101754.87
2018-05-16T23:22:02.767Z,101759.36
2018-05-16T23:24:31.569Z,101760.92
2018-05-16T23:27:00.392Z,101753.42
2018-05-16T23:29:29.217Z,101757.50
2018-05-16T23:31:58.035Z,101752.56
2018-05-16T23:34:26.848Z,101753.55
2018-05-16T23:36:55.693Z,101750.12
2018-05-16T23:39:24.498Z,101748.39
2018-05-16T23:41:53.308Z,101751.12
2018-05-16T23:44:22.135Z,101744.73
2018-05-16T23:46:50.951Z,101750.03
2018-05-16T23:49:19.742Z,101746.23
2018-05-16T23:51:48.522Z,101751.09
2018-05-16T23:54:17.332Z,101745.41
2018-05-16T23:56:46.116Z,101742.29
2018-05-16T23:59:14.963Z,101747.88
